createdAt,value
2018-07-03T00:01:38.363Z,101683.02
2018-07-03T00:04:06.451Z,101680.25
2018-07-03T00:06:34.489Z,101677.58
2018-07-03T00:09:02.537Z,101675.16
2018-07-03T00:11:30.579Z,101681.22
2018-07-03T00:13:58.612Z,101679.48
2018-07-03T00:16:32.108Z,101680.53
2018-07-03T00:19:00.142Z,101678.94
2018-07-03T00:21:28.176Z,101679.73
2018-07-03T00:23:56.286Z,101682.78
2018-07-03T00:26:24.331Z,101680.67
2018-07-03T00:28:52.358Z,101673.59
2018-07-03T00:31:20.405Z,101683.26
2018-07-03T00:33:48.432Z,101680.69
2018-07-03T00:36:16.484Z,101682.09
2018-07-03T00:38:44.525Z,101682.20
2018-07-03T00:41:12.581Z,101683.73
2018-07-03T00:43:40.608Z,101682.56
2018-07-03T00:46:08.653Z,101676.02
2018-07-03T00:48:36.697Z,101672.30
2018-07-03T00:51:04.750Z,101674.16
2018-07-03T00:53:32.804Z,101673.48
2018-07-03T00:56:00.860Z,101670.80
2018-07-03T00:58:28.888Z,101668.69
2018-07-03T01:00:56.930Z,101676.48
2018-07-03T01:03:24.969Z,101674.97
2018-07-03T01:05:53.019Z,101669.76
2018-07-03T01:08:21.168Z,101670.69
2018-07-03T01:10:49.300Z,101669.97
2018-07-03T01:13:17.336Z,101665.32
2018-07-03T01:15:45.375Z,101673.00
2018-07-03T01:18:13.505Z,101671.23
2018-07-03T01:20:41.546Z,101669.27
2018-07-03T01:23:09.573Z,101677.48
2018-07-03T01:25:37.599Z,101676.22
2018-07-03T01:28:05.668Z,101671.32
2018-07-03T01:30:33.708Z,101670.95
2018-07-03T01:33:01.742Z,101669.70
2018-07-03T01:35:29.912Z,101663.41
2018-07-03T01:37:57.944Z,101665.72
2018-07-03T01:40:25.964Z,101666.65
2018-07-03T01:42:54.007Z,101671.06
2018-07-03T01:45:22.034Z,101662.91
2018-07-03T01:47:50.264Z,101663.36
2018-07-03T01:50:18.291Z,101661.84
2018-07-03T01:52:46.323Z,101658.59
2018-07-03T01:55:14.375Z,101659.52
2018-07-03T01:57:42.427Z,101655.44
2018-07-03T02:00:10.453Z,101654.14
2018-07-03T02:02:38.483Z,101653.80
2018-07-03T02:05:06.506Z,101648.33
2018-07-03T02:07:34.544Z,101649.80
2018-07-03T02:10:02.576Z,101648.50
2018-07-03T02:12:30.616Z,101651.38
2018-07-03T02:14:58.648Z,101647.18
2018-07-03T02:17:26.716Z,101640.35
2018-07-03T02:19:54.749Z,101639.73
2018-07-03T02:22:22.784Z,101640.99
2018-07-03T02:24:50.830Z,101638.31
2018-07-03T02:27:18.869Z,101640.97
2018-07-03T02:29:46.899Z,101634.11
2018-07-03T02:32:14.952Z,101638.16
2018-07-03T02:34:43.020Z,101636.06
2018-07-03T02:37:11.057Z,101639.77
2018-07-03T02:39:39.092Z,101635.44
2018-07-03T02:42:07.789Z,101638.56
2018-07-03T02:44:35.822Z,101635.09
2018-07-03T02:47:03.859Z,101637.39
2018-07-03T02:49:31.903Z,101641.88
2018-07-03T02:51:59.965Z,101638.05
2018-07-03T02:54:28.021Z,101640.61
2018-07-03T02:56:56.056Z,101632.36
2018-07-03T02:59:24.088Z,101636.06
2018-07-03T03:01:52.122Z,101639.75
2018-07-03T03:04:20.157Z,101633.72
2018-07-03T03:06:48.206Z,101637.41
2018-07-03T03:09:16.232Z,101631.38
2018-07-03T03:11:44.285Z,101636.81
2018-07-03T03:14:12.380Z,101641.29
2018-07-03T03:16:40.456Z,101643.28
2018-07-03T03:19:08.508Z,101638.51
2018-07-03T03:21:36.552Z,101630.30
2018-07-03T03:24:04.588Z,101629.81
2018-07-03T03:26:32.629Z,101627.95
2018-07-03T03:29:00.683Z,101629.66
2018-07-03T03:31:28.751Z,101632.12
2018-07-03T03:33:56.796Z,101631.30
2018-07-03T03:36:24.831Z,101630.13
2018-07-03T03:38:52.875Z,101627.70
2018-07-03T03:41:20.913Z,101627.34
2018-07-03T03:43:48.943Z,101626.78
2018-07-03T03:46:16.980Z,101623.18
2018-07-03T03:48:45.073Z,101619.83
2018-07-03T03:51:13.138Z,101624.48
2018-07-03T03:53:41.221Z,101623.22
2018-07-03T03:56:09.252Z,101628.47
2018-07-03T03:58:37.446Z,101627.86
2018-07-03T04:01:05.472Z,101632.52
2018-07-03T04:03:33.520Z,101624.08
2018-07-03T04:06:01.583Z,101634.54
2018-07-03T04:08:29.625Z,101628.54
2018-07-03T04:10:57.690Z,101631.45
2018-07-03T04:13:25.737Z,101638.78
2018-07-03T04:15:53.776Z,101632.18
2018-07-03T04:18:29.378Z,101640.55
2018-07-03T04:20:57.404Z,101633.41
2018-07-03T04:23:25.443Z,101635.66
2018-07-03T04:25:53.479Z,101631.73
2018-07-03T04:28:21.531Z,101627.23
2018-07-03T04:30:49.616Z,101628.80
2018-07-03T04:33:17.659Z,101635.36
2018-07-03T04:35:45.696Z,101644.31
2018-07-03T04:38:13.738Z,101642.73
2018-07-03T04:40:41.779Z,101639.52
2018-07-03T04:43:09.820Z,101639.28
2018-07-03T04:45:37.860Z,101643.37
2018-07-03T04:48:05.911Z,101644.88
2018-07-03T04:50:34.008Z,101643.03
2018-07-03T04:53:02.067Z,101643.75
2018-07-03T04:55:30.140Z,101644.67
2018-07-03T04:57:58.289Z,101628.05
2018-07-03T05:00:26.357Z,101630.60
2018-07-03T05:02:54.420Z,101631.19
2018-07-03T05:05:22.477Z,101637.89
2018-07-03T05:07:50.516Z,101637.77
2018-07-03T05:10:18.557Z,101640.88
2018-07-03T05:12:46.588Z,101641.78
2018-07-03T05:15:14.660Z,101635.81
2018-07-03T05:17:42.707Z,101642.63
2018-07-03T05:20:10.826Z,101635.05
2018-07-03T05:22:38.885Z,101632.22
2018-07-03T05:25:06.936Z,101629.89
2018-07-03T05:27:35.003Z,101636.69
2018-07-03T05:30:03.056Z,101635.70
2018-07-03T05:32:31.124Z,101632.84
2018-07-03T05:34:59.168Z,101637.94
2018-07-03T05:37:27.204Z,101649.80
2018-07-03T05:39:55.256Z,101647.18
2018-07-03T05:42:23.280Z,101640.48
2018-07-03T05:44:51.329Z,101646.71
2018-07-03T05:47:19.392Z,101647.33
2018-07-03T05:49:47.436Z,101648.34
2018-07-03T05:52:15.540Z,101644.65
2018-07-03T05:54:43.586Z,101637.23
2018-07-03T05:57:11.653Z,101636.02
2018-07-03T05:59:39.699Z,101647.14
2018-07-03T06:02:07.748Z,101635.52
2018-07-03T06:04:35.788Z,101646.22
2018-07-03T06:07:03.832Z,101648.00
2018-07-03T06:09:31.917Z,101649.64
2018-07-03T06:11:59.964Z,101652.16
2018-07-03T06:14:28.028Z,101652.02
2018-07-03T06:16:57.031Z,101650.70
2018-07-03T06:19:26.143Z,101659.70
2018-07-03T06:21:55.021Z,101654.98
2018-07-03T06:24:23.068Z,101652.47
2018-07-03T06:26:51.168Z,101651.69
2018-07-03T06:29:19.208Z,101648.21
2018-07-03T06:31:47.704Z,101651.86
2018-07-03T06:34:15.792Z,101652.30
2018-07-03T06:36:43.832Z,101654.55
2018-07-03T06:39:13.362Z,101648.95
2018-07-03T06:41:41.459Z,101651.98
2018-07-03T06:44:10.076Z,101649.05
2018-07-03T06:46:38.136Z,101649.69
2018-07-03T06:49:06.186Z,101657.34
2018-07-03T06:51:34.392Z,101651.29
2018-07-03T06:54:02.433Z,101648.66
2018-07-03T06:56:30.492Z,101644.47
2018-07-03T06:58:59.249Z,101654.27
2018-07-03T07:01:27.331Z,101653.59
2018-07-03T07:03:55.379Z,101651.84
2018-07-03T07:06:23.436Z,101653.86
2018-07-03T07:08:51.649Z,101652.82
2018-07-03T07:11:19.540Z,101654.95
2018-07-03T07:13:47.589Z,101650.07
2018-07-03T07:16:15.645Z,101651.39
2018-07-03T07:18:43.699Z,101649.77
2018-07-03T07:21:11.752Z,101650.44
2018-07-03T07:23:39.814Z,101655.94
2018-07-03T07:26:07.860Z,101649.20
2018-07-03T07:28:35.903Z,101650.09
2018-07-03T07:31:03.961Z,101648.55
2018-07-03T07:33:32.012Z,101651.66
2018-07-03T07:36:00.092Z,101657.75
2018-07-03T07:38:28.132Z,101650.77
2018-07-03T07:40:56.180Z,101650.37
2018-07-03T07:43:24.219Z,101652.63
2018-07-03T07:45:52.268Z,101653.45
2018-07-03T07:48:20.300Z,101652.02
2018-07-03T07:50:48.356Z,101653.80
2018-07-03T07:53:16.421Z,101654.55
2018-07-03T07:55:44.481Z,101653.08
2018-07-03T07:58:12.529Z,101651.55
2018-07-03T08:00:40.573Z,101651.66
2018-07-03T08:03:08.656Z,101647.28
2018-07-03T08:05:36.708Z,101652.23
2018-07-03T08:08:04.801Z,101653.75
2018-07-03T08:10:32.899Z,101660.23
2018-07-03T08:13:00.969Z,101654.87
2018-07-03T08:15:29.025Z,101651.17
2018-07-03T08:17:57.080Z,101649.97
2018-07-03T08:20:25.164Z,101645.40
2018-07-03T08:22:53.220Z,101647.24
2018-07-03T08:25:21.307Z,101641.27
2018-07-03T08:27:49.344Z,101643.13
2018-07-03T08:30:17.443Z,101646.61
2018-07-03T08:32:45.500Z,101652.34
2018-07-03T08:35:14.056Z,101646.17
2018-07-03T08:37:42.153Z,101651.25
2018-07-03T08:40:10.192Z,101653.91
2018-07-03T08:42:38.338Z,101649.12
2018-07-03T08:45:07.136Z,101650.94
2018-07-03T08:47:35.185Z,101655.36
2018-07-03T08:50:03.228Z,101645.42
2018-07-03T08:52:31.289Z,101655.98
2018-07-03T08:54:59.380Z,101642.98
2018-07-03T08:57:27.413Z,101646.12
2018-07-03T08:59:55.460Z,101653.53
2018-07-03T09:02:23.518Z,101649.96
2018-07-03T09:04:51.564Z,101649.98
2018-07-03T09:07:19.616Z,101639.55
2018-07-03T09:09:47.653Z,101637.79
2018-07-03T09:12:15.763Z,101640.61
2018-07-03T09:14:43.808Z,101635.13
2018-07-03T09:17:17.375Z,101630.45
2018-07-03T09:19:45.416Z,101633.73
2018-07-03T09:22:13.476Z,101627.58
2018-07-03T09:24:41.720Z,101624.77
2018-07-03T09:27:10.009Z,101636.83
2018-07-03T09:29:38.163Z,101628.09
2018-07-03T09:32:06.655Z,101627.27
2018-07-03T09:34:34.723Z,101628.31
2018-07-03T09:37:02.772Z,101625.65
2018-07-03T09:39:30.874Z,101626.25
2018-07-03T09:41:58.945Z,101617.25
2018-07-03T09:44:27.087Z,101625.17
2018-07-03T09:46:55.177Z,101621.86
2018-07-03T09:49:23.245Z,101627.13
2018-07-03T09:51:51.311Z,101621.27
2018-07-03T09:54:19.372Z,101623.54
2018-07-03T09:56:47.432Z,101630.44
2018-07-03T09:59:15.483Z,101628.19
2018-07-03T10:01:43.544Z,101627.37
2018-07-03T10:04:11.580Z,101627.39
2018-07-03T10:06:39.639Z,101629.84
2018-07-03T10:09:09.356Z,101630.45
2018-07-03T10:11:37.469Z,101624.62
2018-07-03T10:14:05.512Z,101620.73
2018-07-03T10:16:33.566Z,101621.08
2018-07-03T10:19:01.617Z,101617.34
2018-07-03T10:21:29.705Z,101623.68
2018-07-03T10:23:57.744Z,101618.28
2018-07-03T10:26:25.848Z,101616.23
2018-07-03T10:28:53.931Z,101620.78
2018-07-03T10:31:21.977Z,101615.97
2018-07-03T10:33:50.055Z,101615.55
2018-07-03T10:36:18.149Z,101618.65
2018-07-03T10:38:46.189Z,101610.71
2018-07-03T10:41:14.276Z,101615.75
2018-07-03T10:43:42.335Z,101619.73
2018-07-03T10:46:10.699Z,101626.36
2018-07-03T10:48:38.751Z,101625.07
2018-07-03T10:51:06.796Z,101622.95
2018-07-03T10:53:34.857Z,101621.18
2018-07-03T10:56:02.923Z,101616.14
2018-07-03T10:58:30.988Z,101620.44
2018-07-03T11:00:59.035Z,101617.55
2018-07-03T11:03:27.100Z,101616.18
2018-07-03T11:05:55.141Z,101611.34
2018-07-03T11:08:23.201Z,101617.02
2018-07-03T11:10:51.288Z,101608.27
2018-07-03T11:13:19.356Z,101605.27
2018-07-03T11:15:47.404Z,101610.41
2018-07-03T11:18:15.488Z,101612.08
2018-07-03T11:20:43.536Z,101596.66
2018-07-03T11:23:11.612Z,101594.89
2018-07-03T11:25:39.672Z,101595.39
2018-07-03T11:28:07.729Z,101591.74
2018-07-03T11:30:35.772Z,101573.80
2018-07-03T11:33:03.840Z,101577.88
2018-07-03T11:35:31.899Z,101572.36
2018-07-03T11:37:59.959Z,101576.45
2018-07-03T11:40:28.002Z,101582.62
2018-07-03T11:42:56.091Z,101575.16
2018-07-03T11:45:24.137Z,101575.41
2018-07-03T11:47:52.199Z,101580.03
2018-07-03T11:50:20.257Z,101576.27
2018-07-03T11:52:48.344Z,101582.36
2018-07-03T11:55:16.395Z,101583.31
2018-07-03T11:57:44.453Z,101579.52
2018-07-03T12:00:12.512Z,101571.22
2018-07-03T12:02:40.580Z,101572.83
2018-07-03T12:05:08.636Z,101565.55
2018-07-03T12:07:36.733Z,101577.05
2018-07-03T12:10:05.021Z,101570.11
2018-07-03T12:12:33.075Z,101566.16
2018-07-03T12:15:01.130Z,101574.32
2018-07-03T12:17:29.164Z,101563.13
2018-07-03T12:19:57.279Z,101575.39
2018-07-03T12:22:25.303Z,101557.53
2018-07-03T12:24:53.359Z,101567.56
2018-07-03T12:27:21.398Z,101562.81
2018-07-03T12:29:49.472Z,101548.48
2018-07-03T12:32:17.533Z,101553.75
2018-07-03T12:34:45.592Z,101558.49
2018-07-03T12:37:13.636Z,101561.52
2018-07-03T12:39:41.691Z,101553.99
2018-07-03T12:42:09.754Z,101555.36
2018-07-03T12:44:37.836Z,101554.41
2018-07-03T12:47:05.900Z,101549.11
2018-07-03T12:49:33.947Z,101554.05
2018-07-03T12:52:02.008Z,101547.79
2018-07-03T12:54:30.068Z,101549.44
2018-07-03T12:56:58.129Z,101558.30
2018-07-03T12:59:26.184Z,101549.88
2018-07-03T13:01:54.256Z,101551.58
2018-07-03T13:04:22.355Z,101563.13
2018-07-03T13:06:50.432Z,101559.58
2018-07-03T13:09:18.491Z,101559.25
2018-07-03T13:11:46.583Z,101548.59
2018-07-03T13:14:14.663Z,101549.77
2018-07-03T13:16:42.767Z,101553.67
2018-07-03T13:19:10.820Z,101558.45
2018-07-03T13:21:39.108Z,101552.31
2018-07-03T13:24:07.188Z,101545.33
2018-07-03T13:26:35.249Z,101556.17
2018-07-03T13:29:03.336Z,101550.44
2018-07-03T13:31:31.415Z,101551.20
2018-07-03T13:33:59.436Z,101544.09
2018-07-03T13:36:27.551Z,101543.02
2018-07-03T13:38:55.611Z,101546.21
2018-07-03T13:41:23.682Z,101543.91
2018-07-03T13:43:51.752Z,101549.92
2018-07-03T13:46:19.808Z,101544.03
2018-07-03T13:48:47.892Z,101543.55
2018-07-03T13:51:15.958Z,101534.11
2018-07-03T13:53:44.019Z,101532.55
2018-07-03T13:56:12.108Z,101534.30
2018-07-03T13:58:40.156Z,101532.77
2018-07-03T14:01:08.238Z,101532.98
2018-07-03T14:03:36.272Z,101543.66
2018-07-03T14:06:04.340Z,101540.18
2018-07-03T14:08:32.439Z,101536.48
2018-07-03T14:11:01.064Z,101525.36
2018-07-03T14:13:29.104Z,101532.22
2018-07-03T14:15:57.160Z,101535.41
2018-07-03T14:18:26.248Z,101540.91
2018-07-03T14:20:56.173Z,101529.89
2018-07-03T14:23:24.237Z,101530.08
2018-07-03T14:25:52.321Z,101527.88
2018-07-03T14:28:20.376Z,101527.42
2018-07-03T14:30:48.459Z,101537.06
2018-07-03T14:33:16.523Z,101526.23
2018-07-03T14:35:44.654Z,101529.29
2018-07-03T14:38:12.709Z,101525.92
2018-07-03T14:40:40.835Z,101525.72
2018-07-03T14:43:08.879Z,101522.52
2018-07-03T14:45:37.049Z,101522.15
2018-07-03T14:48:05.757Z,101527.41
2018-07-03T14:50:33.844Z,101523.34
2018-07-03T14:53:01.928Z,101527.42
2018-07-03T14:55:29.984Z,101524.30
2018-07-03T14:57:58.040Z,101519.45
2018-07-03T15:00:26.120Z,101518.08
2018-07-03T15:02:54.181Z,101524.23
2018-07-03T15:05:22.260Z,101520.08
2018-07-03T15:07:50.308Z,101518.77
2018-07-03T15:10:18.396Z,101517.76
2018-07-03T15:12:46.432Z,101520.28
2018-07-03T15:15:14.556Z,101523.00
2018-07-03T15:17:42.601Z,101518.42
2018-07-03T15:20:10.680Z,101510.66
2018-07-03T15:22:38.727Z,101517.81
2018-07-03T15:25:06.817Z,101521.51
2018-07-03T15:27:34.876Z,101518.70
2018-07-03T15:30:02.959Z,101518.81
2018-07-03T15:32:31.021Z,101522.70
2018-07-03T15:34:59.104Z,101512.83
2018-07-03T15:37:27.148Z,101511.06
2018-07-03T15:39:55.279Z,101512.85
2018-07-03T15:42:23.336Z,101515.54
2018-07-03T15:45:02.807Z,101521.69
2018-07-03T15:47:30.920Z,101517.91
2018-07-03T15:49:59.037Z,101513.36
2018-07-03T15:52:27.104Z,101512.17
2018-07-03T15:54:55.141Z,101507.38
2018-07-03T15:57:23.212Z,101499.03
2018-07-03T15:59:51.256Z,101501.79
2018-07-03T16:02:19.365Z,101498.97
2018-07-03T16:05:04.704Z,101497.56
2018-07-03T16:07:48.112Z,101499.18
2018-07-03T16:10:16.160Z,101500.00
2018-07-03T16:12:44.233Z,101502.50
2018-07-03T16:15:12.344Z,101501.47
2018-07-03T16:17:41.266Z,101505.83
2018-07-03T16:20:14.803Z,101511.97
2018-07-03T16:22:42.852Z,101505.19
2018-07-03T16:25:10.946Z,101498.67
2018-07-03T16:27:38.945Z,101494.96
2018-07-03T16:30:08.120Z,101492.52
2018-07-03T16:32:36.412Z,101494.69
2018-07-03T16:35:04.712Z,101496.81
2018-07-03T16:37:32.772Z,101495.55
2018-07-03T16:40:00.824Z,101486.99
2018-07-03T16:42:28.955Z,101486.62
2018-07-03T16:44:57.023Z,101488.59
2018-07-03T16:47:25.186Z,101483.52
2018-07-03T16:49:53.235Z,101485.02
2018-07-03T16:52:21.304Z,101481.03
2018-07-03T16:54:49.343Z,101480.23
2018-07-03T16:57:17.429Z,101477.88
2018-07-03T16:59:45.471Z,101479.38
2018-07-03T17:02:13.555Z,101476.95
2018-07-03T17:04:41.664Z,101475.20
2018-07-03T17:07:09.734Z,101474.59
2018-07-03T17:09:37.782Z,101474.67
2018-07-03T17:12:06.053Z,101475.41
2018-07-03T17:14:34.110Z,101477.57
2018-07-03T17:17:02.173Z,101475.20
2018-07-03T17:19:44.898Z,101473.35
2018-07-03T17:22:12.836Z,101480.45
2018-07-03T17:24:40.901Z,101487.55
2018-07-03T17:27:09.024Z,101482.00
2018-07-03T17:29:37.075Z,101488.13
2018-07-03T17:32:05.148Z,101490.39
2018-07-03T17:34:33.222Z,101486.39
2018-07-03T17:37:01.282Z,101490.89
2018-07-03T17:39:40.783Z,101488.86
2018-07-03T17:42:20.400Z,101493.89
2018-07-03T17:46:00.800Z,101489.12
2018-07-03T17:48:28.908Z,101484.77
2018-07-03T17:50:57.024Z,101474.48
2018-07-03T17:53:25.152Z,101476.61
2018-07-03T17:55:53.309Z,101468.77
2018-07-03T17:58:21.392Z,101472.85
2018-07-03T18:00:49.456Z,101475.11
2018-07-03T18:03:17.528Z,101478.84
2018-07-03T18:05:45.594Z,101475.46
2018-07-03T18:08:13.681Z,101483.08
2018-07-03T18:10:41.720Z,101481.24
2018-07-03T18:13:09.802Z,101478.34
2018-07-03T18:15:37.845Z,101482.72
2018-07-03T18:18:05.912Z,101481.81
2018-07-03T18:20:33.952Z,101484.92
2018-07-03T18:23:02.001Z,101474.20
2018-07-03T18:25:30.088Z,101469.50
2018-07-03T18:27:58.142Z,101466.40
2018-07-03T18:30:26.191Z,101466.06
2018-07-03T18:32:54.251Z,101462.64
2018-07-03T18:35:22.339Z,101462.23
2018-07-03T18:37:50.396Z,101461.64
2018-07-03T18:40:18.568Z,101465.00
2018-07-03T18:42:46.552Z,101474.52
2018-07-03T18:45:14.600Z,101484.25
2018-07-03T18:47:42.648Z,101485.33
2018-07-03T18:50:10.724Z,101487.53
2018-07-03T18:52:38.796Z,101482.82
2018-07-03T18:55:06.872Z,101486.75
2018-07-03T18:57:34.928Z,101481.65
2018-07-03T19:00:03.006Z,101487.14
2018-07-03T19:02:31.073Z,101490.59
2018-07-03T19:04:59.160Z,101492.45
2018-07-03T19:07:27.212Z,101487.86
2018-07-03T19:09:55.297Z,101487.05
2018-07-03T19:12:23.351Z,101486.06
2018-07-03T19:14:51.412Z,101481.81
2018-07-03T19:17:19.464Z,101480.65
2018-07-03T19:19:47.525Z,101476.83
2018-07-03T19:22:15.603Z,101490.51
2018-07-03T19:24:43.684Z,101486.48
2018-07-03T19:27:11.767Z,101491.29
2018-07-03T19:29:39.900Z,101494.49
2018-07-03T19:32:07.952Z,101497.87
2018-07-03T19:34:36.012Z,101496.84
2018-07-03T19:37:04.068Z,101505.88
2018-07-03T19:39:32.135Z,101506.25
2018-07-03T19:42:00.210Z,101501.39
2018-07-03T19:44:28.263Z,101507.42
2018-07-03T19:46:56.343Z,101504.97
2018-07-03T19:49:24.401Z,101504.33
2018-07-03T19:51:52.461Z,101502.45
2018-07-03T19:54:20.528Z,101504.63
2018-07-03T19:56:48.569Z,101497.34
2018-07-03T19:59:16.625Z,101500.33
2018-07-03T20:01:44.684Z,101502.48
2018-07-03T20:04:12.780Z,101508.09
2018-07-03T20:06:40.828Z,101505.63
2018-07-03T20:09:10.731Z,101508.61
2018-07-03T20:11:38.849Z,101502.72
2018-07-03T20:14:07.360Z,101506.09
2018-07-03T20:16:35.668Z,101508.64
2018-07-03T20:19:03.803Z,101504.55
2018-07-03T20:21:31.832Z,101505.88
2018-07-03T20:24:00.000Z,101504.79
2018-07-03T20:26:28.052Z,101508.98
2018-07-03T20:28:56.096Z,101510.14
2018-07-03T20:31:24.178Z,101509.27
2018-07-03T20:33:52.230Z,101514.03
2018-07-03T20:36:20.296Z,101516.58
2018-07-03T20:38:48.345Z,101519.53
2018-07-03T20:41:16.392Z,101522.48
2018-07-03T20:43:44.437Z,101517.39
2018-07-03T20:46:12.510Z,101519.91
2018-07-03T20:48:41.376Z,101520.86
2018-07-03T20:51:09.424Z,101512.53
2018-07-03T20:53:37.488Z,101521.28
2018-07-03T20:56:05.560Z,101514.62
2018-07-03T20:58:33.612Z,101520.72
2018-07-03T21:01:01.681Z,101521.66
2018-07-03T21:03:29.743Z,101522.20
2018-07-03T21:05:57.807Z,101524.75
2018-07-03T21:08:25.851Z,101529.66
2018-07-03T21:10:53.924Z,101525.37
2018-07-03T21:13:21.971Z,101533.91
2018-07-03T21:15:50.028Z,101534.61
2018-07-03T21:18:18.074Z,101538.50
2018-07-03T21:20:46.127Z,101540.60
2018-07-03T21:23:14.171Z,101534.48
2018-07-03T21:25:42.218Z,101533.77
2018-07-03T21:28:10.267Z,101532.48
2018-07-03T21:30:38.318Z,101533.40
2018-07-03T21:33:06.437Z,101533.35
2018-07-03T21:35:34.545Z,101532.05
2018-07-03T21:38:02.608Z,101528.14
2018-07-03T21:40:30.672Z,101526.27
2018-07-03T21:42:58.717Z,101522.16
2018-07-03T21:45:26.788Z,101525.05
2018-07-03T21:47:54.843Z,101520.13
2018-07-03T21:50:22.908Z,101521.42
2018-07-03T21:52:50.960Z,101513.26
2018-07-03T21:55:19.007Z,101514.31
2018-07-03T21:57:47.092Z,101517.76
2018-07-03T22:00:15.141Z,101514.41
2018-07-03T22:02:43.193Z,101518.45
2018-07-03T22:05:11.468Z,101512.12
2018-07-03T22:07:39.523Z,101509.05
2018-07-03T22:10:07.566Z,101510.73
2018-07-03T22:12:35.636Z,101511.26
2018-07-03T22:15:03.693Z,101505.16
2018-07-03T22:17:31.753Z,101503.02
2018-07-03T22:19:59.799Z,101504.12
2018-07-03T22:22:27.852Z,101499.99
2018-07-03T22:24:55.895Z,101502.15
2018-07-03T22:27:23.953Z,101500.89
2018-07-03T22:29:51.989Z,101507.75
2018-07-03T22:32:20.048Z,101507.45
2018-07-03T22:34:48.131Z,101501.55
2018-07-03T22:37:16.173Z,101499.84
2018-07-03T22:39:44.233Z,101501.78
2018-07-03T22:42:12.287Z,101511.43
2018-07-03T22:44:40.333Z,101504.27
2018-07-03T22:47:08.388Z,101507.94
2018-07-03T22:49:36.425Z,101504.05
2018-07-03T22:52:04.489Z,101507.48
2018-07-03T22:54:32.552Z,101505.52
2018-07-03T22:57:00.615Z,101500.59
2018-07-03T22:59:28.656Z,101502.05
2018-07-03T23:01:56.713Z,101506.30
2018-07-03T23:04:24.761Z,101503.31
2018-07-03T23:06:53.076Z,101505.79
2018-07-03T23:09:21.166Z,101504.09
2018-07-03T23:11:49.216Z,101502.95
2018-07-03T23:14:17.269Z,101504.03
2018-07-03T23:16:45.343Z,101501.62
2018-07-03T23:19:13.387Z,101497.47
2018-07-03T23:21:41.453Z,101492.96
2018-07-03T23:24:09.488Z,101493.00
2018-07-03T23:26:37.535Z,101490.25
2018-07-03T23:29:05.588Z,101490.89
2018-07-03T23:31:33.664Z,101492.33
2018-07-03T23:34:01.721Z,101487.57
2018-07-03T23:36:29.812Z,101488.30
2018-07-03T23:38:57.852Z,101492.39
2018-07-03T23:41:25.916Z,101486.12
2018-07-03T23:43:54.120Z,101487.78
2018-07-03T23:46:33.804Z,101484.87
2018-07-03T23:49:13.330Z,101487.48
2018-07-03T23:51:52.876Z,101484.60
2018-07-03T23:54:32.385Z,101489.60
2018-07-03T23:57:11.908Z,101479.66
2018-07-03T23:59:51.557Z,101474.88
